Aviation Digital Data Service (ADDS)

Output produced by METARs form (1445 UTC 23 January 2017)
found at http://aviationweather.gov/adds/metars/
 
KJXN 231152Z 2312/2412 02005KT 3/4SM BR OVC002 
     FM231400 02006KT 1SM BR OVC003 
     FM231600 36006KT 2SM BR VCSH OVC004 
     FM231800 33006KT 3SM -RA BR OVC004 
     FM240400 29005KT 2SM BR OVC003